Peardale, California
Current Conditions -  °F | °C
As of 4:00 PM on Friday 24 Oct 2014 (Local Time) from KGOO Reporting Station
Clear Clear  
Wind Chill: 72°   Ceiling: Unl
Heat Index: 72°   Visibility: 10mi
Dew Point: 37°   Wind: 7mph
Humidity: 29%   Direction: 210°SSW
Pressure: 29.98"   Gusts: NA
Location:  39.2183°N, 120.924°W
Report Text: KGOO 242300Z AUTO 21006KT 10SM CLR 22/03 A2998 RMK AO1
Loading
Personal Weather Stations






























Interactive Weather Map
Tropical Storm Tracking
New forecast layout! Learn more

10-Day Weather Forecast

Advertisements
Track Severe Weather on mobile